createdAt,value
2023-05-18T00:02:01.880Z,9.07
2023-05-18T00:05:05.390Z,8.98
2023-05-18T00:08:09.788Z,8.92
2023-05-18T00:11:13.826Z,8.71
2023-05-18T00:14:16.319Z,8.63
2023-05-18T00:17:20.229Z,8.58
2023-05-18T00:20:26.537Z,8.62
2023-05-18T00:23:30.006Z,8.59
2023-05-18T00:26:34.126Z,8.51
2023-05-18T00:29:36.765Z,8.40
2023-05-18T00:32:39.357Z,8.35
2023-05-18T00:35:41.979Z,8.37
2023-05-18T00:38:44.571Z,8.41
2023-05-18T00:41:48.581Z,8.33
2023-05-18T00:44:51.137Z,8.27
2023-05-18T00:47:53.723Z,8.23
2023-05-18T00:50:56.354Z,8.23
2023-05-18T00:54:01.064Z,8.26
2023-05-18T00:57:05.750Z,8.31
2023-05-18T01:00:10.894Z,8.39
2023-05-18T01:03:15.274Z,8.37
2023-05-18T01:06:18.438Z,8.28
2023-05-18T01:09:21.100Z,8.13
2023-05-18T01:12:28.325Z,8.03
2023-05-18T01:15:33.969Z,7.94
2023-05-18T01:18:43.565Z,7.90
2023-05-18T01:21:57.588Z,7.80
2023-05-18T01:25:04.719Z,7.77
2023-05-18T01:28:10.320Z,7.72
2023-05-18T01:31:13.625Z,7.63
2023-05-18T01:34:16.344Z,7.65
2023-05-18T01:37:18.920Z,7.62
2023-05-18T01:40:21.591Z,7.54
2023-05-18T01:43:29.991Z,7.42
2023-05-18T01:46:37.009Z,7.39
2023-05-18T01:49:44.096Z,7.33
2023-05-18T01:52:49.533Z,7.19
2023-05-18T01:55:53.924Z,7.17
2023-05-18T01:58:58.823Z,7.13
2023-05-18T02:02:02.046Z,7.14
2023-05-18T02:05:05.590Z,7.11
2023-05-18T02:08:08.198Z,7.10
2023-05-18T02:11:11.190Z,7.05
2023-05-18T02:14:15.165Z,7.02
2023-05-18T02:17:17.907Z,6.94
2023-05-18T02:20:20.705Z,6.86
2023-05-18T02:23:23.355Z,6.82
2023-05-18T02:26:26.377Z,6.77
2023-05-18T02:29:30.506Z,6.80
2023-05-18T02:32:38.195Z,6.77
2023-05-18T02:35:41.253Z,6.66
2023-05-18T02:38:45.064Z,6.68
2023-05-18T02:41:47.529Z,6.66
2023-05-18T02:44:52.115Z,6.67
2023-05-18T02:47:54.982Z,6.68
2023-05-18T02:50:58.775Z,6.65
2023-05-18T02:54:01.564Z,6.65
2023-05-18T02:57:04.186Z,6.61
2023-05-18T03:00:11.696Z,6.66
2023-05-18T03:03:16.372Z,6.66
2023-05-18T03:06:23.379Z,6.55
2023-05-18T03:09:26.554Z,6.49
2023-05-18T03:12:29.280Z,6.45
2023-05-18T03:15:33.392Z,6.44
2023-05-18T03:18:36.061Z,6.47
2023-05-18T03:21:38.874Z,6.44
2023-05-18T03:24:41.557Z,6.39
2023-05-18T03:27:44.264Z,6.37
2023-05-18T03:30:48.214Z,6.34
2023-05-18T03:33:50.899Z,6.32
2023-05-18T03:36:54.814Z,6.31
2023-05-18T03:40:00.936Z,6.32
2023-05-18T03:43:03.613Z,6.34
2023-05-18T03:46:07.781Z,6.36
2023-05-18T03:49:10.322Z,6.46
2023-05-18T03:52:15.339Z,6.56
2023-05-18T03:55:21.321Z,6.54
2023-05-18T03:58:23.961Z,6.51
2023-05-18T04:01:30.206Z,6.59
2023-05-18T04:04:33.296Z,6.62
2023-05-18T04:07:44.084Z,6.64
2023-05-18T04:10:47.382Z,6.62
2023-05-18T04:13:50.860Z,6.72
2023-05-18T04:16:55.007Z,6.82
2023-05-18T04:19:57.819Z,6.86
2023-05-18T04:23:00.461Z,6.88
2023-05-18T04:26:03.598Z,6.98
2023-05-18T04:29:07.735Z,7.10
2023-05-18T04:32:11.746Z,7.14
2023-05-18T04:35:14.710Z,7.19
2023-05-18T04:38:17.380Z,7.24
2023-05-18T04:41:22.200Z,7.26
2023-05-18T04:44:25.857Z,7.34
2023-05-18T04:47:30.157Z,7.46
2023-05-18T04:50:32.880Z,7.57
2023-05-18T04:53:38.693Z,7.71
2023-05-18T04:56:41.287Z,7.83
2023-05-18T04:59:47.255Z,7.92
2023-05-18T05:02:51.441Z,8.07
2023-05-18T05:05:54.469Z,8.21
2023-05-18T05:08:58.196Z,8.23
2023-05-18T05:12:00.924Z,8.44
2023-05-18T05:15:03.779Z,8.58
2023-05-18T05:18:08.057Z,8.81
2023-05-18T05:21:11.047Z,9.02
2023-05-18T05:24:13.672Z,9.21
2023-05-18T05:27:16.285Z,9.16
2023-05-18T05:30:18.914Z,9.38
2023-05-18T05:33:22.869Z,9.47
2023-05-18T05:36:25.571Z,9.58
2023-05-18T05:39:28.112Z,9.68
2023-05-18T05:42:30.805Z,9.81
2023-05-18T05:45:33.840Z,9.96
2023-05-18T05:48:38.142Z,10.08
2023-05-18T05:51:40.888Z,10.21
2023-05-18T05:54:43.521Z,10.31
2023-05-18T05:57:46.037Z,10.40
2023-05-18T06:00:48.700Z,10.51
2023-05-18T06:03:52.691Z,10.43
2023-05-18T06:06:55.391Z,10.47
2023-05-18T06:09:58.041Z,10.54
2023-05-18T06:13:00.678Z,10.51
2023-05-18T06:16:03.494Z,10.63
2023-05-18T06:19:07.518Z,10.80
2023-05-18T06:22:10.173Z,10.95
2023-05-18T06:25:12.724Z,11.05
2023-05-18T06:28:15.364Z,11.15
2023-05-18T06:31:18.988Z,11.29
2023-05-18T06:34:23.054Z,11.43
2023-05-18T06:37:25.684Z,11.64
2023-05-18T06:40:28.738Z,11.87
2023-05-18T06:43:31.399Z,12.04
2023-05-18T06:46:34.058Z,12.21
2023-05-18T06:49:38.272Z,12.33
2023-05-18T06:52:40.870Z,12.48
2023-05-18T06:55:43.571Z,12.48
2023-05-18T06:58:46.426Z,12.58
2023-05-18T07:01:50.119Z,12.70
2023-05-18T07:04:54.361Z,12.77
2023-05-18T07:07:57.395Z,12.88
2023-05-18T07:11:02.431Z,12.86
2023-05-18T07:14:06.038Z,13.05
2023-05-18T07:17:08.797Z,13.25
2023-05-18T07:20:13.320Z,13.57
2023-05-18T07:23:16.028Z,13.68
2023-05-18T07:26:18.582Z,13.75
2023-05-18T07:29:21.254Z,13.92
2023-05-18T07:32:23.991Z,14.06
2023-05-18T07:35:27.856Z,14.20
2023-05-18T07:38:30.546Z,14.43
2023-05-18T07:41:33.245Z,14.51
2023-05-18T07:44:35.890Z,14.62
2023-05-18T07:47:38.531Z,14.90
2023-05-18T07:50:42.840Z,15.03
2023-05-18T07:53:45.971Z,15.06
2023-05-18T07:56:48.690Z,15.25
2023-05-18T07:59:51.416Z,15.59
2023-05-18T08:02:54.479Z,15.58
2023-05-18T08:05:58.554Z,15.86
2023-05-18T08:09:01.265Z,16.06
2023-05-18T08:12:03.929Z,16.39
2023-05-18T08:15:07.924Z,16.57
2023-05-18T08:18:10.584Z,16.82
2023-05-18T08:21:14.606Z,16.79
2023-05-18T08:24:17.158Z,16.49
2023-05-18T08:27:20.021Z,16.69
2023-05-18T08:30:22.788Z,16.86
2023-05-18T08:33:25.828Z,17.05
2023-05-18T08:36:30.501Z,16.82
2023-05-18T08:39:33.083Z,16.96
2023-05-18T08:42:49.353Z,17.08
2023-05-18T08:45:56.460Z,17.12
2023-05-18T08:48:59.921Z,17.25
2023-05-18T08:52:04.820Z,17.56
2023-05-18T08:55:10.937Z,17.75
2023-05-18T08:58:15.328Z,17.98
2023-05-18T09:01:18.382Z,17.86
2023-05-18T09:04:21.513Z,18.07
2023-05-18T09:07:27.506Z,18.02
2023-05-18T09:10:30.209Z,18.11
2023-05-18T09:13:32.786Z,18.17
2023-05-18T09:16:35.715Z,18.34
2023-05-18T09:19:38.360Z,18.46
2023-05-18T09:22:42.335Z,18.65
2023-05-18T09:25:46.208Z,18.79
2023-05-18T09:28:53.191Z,18.86
2023-05-18T09:31:56.026Z,19.00
2023-05-18T09:35:05.552Z,19.36
2023-05-18T09:38:09.924Z,19.20
2023-05-18T09:41:16.387Z,19.40
2023-05-18T09:44:19.005Z,19.33
2023-05-18T09:47:21.639Z,19.50
2023-05-18T09:50:26.507Z,19.53
2023-05-18T09:53:30.481Z,20.08
2023-05-18T09:56:36.285Z,20.21
2023-05-18T09:59:38.830Z,19.89
2023-05-18T10:02:42.395Z,19.32
2023-05-18T10:05:45.017Z,19.87
2023-05-18T10:08:48.988Z,19.66
2023-05-18T10:11:51.602Z,19.66
2023-05-18T10:14:54.282Z,19.42
2023-05-18T10:17:58.074Z,19.76
2023-05-18T10:21:02.989Z,19.48
2023-05-18T10:24:08.813Z,19.73
2023-05-18T10:27:12.137Z,20.03
2023-05-18T10:30:14.574Z,20.39
2023-05-18T10:33:28.638Z,20.12
2023-05-18T10:36:34.324Z,20.28
2023-05-18T10:39:38.526Z,20.13
2023-05-18T10:42:41.269Z,20.11
2023-05-18T10:45:45.920Z,20.07
2023-05-18T10:48:49.434Z,19.92
2023-05-18T10:51:54.377Z,19.96
2023-05-18T10:54:59.568Z,20.19
2023-05-18T10:58:04.929Z,20.39
2023-05-18T11:01:10.272Z,20.41
2023-05-18T11:04:13.030Z,20.73
2023-05-18T11:07:16.245Z,20.35
2023-05-18T11:10:20.122Z,20.57
2023-05-18T11:13:29.554Z,20.90
2023-05-18T11:16:35.427Z,20.72
2023-05-18T11:19:38.111Z,20.74
2023-05-18T11:22:46.065Z,20.39
2023-05-18T11:25:51.052Z,20.93
2023-05-18T11:28:53.923Z,20.94
2023-05-18T11:31:56.761Z,20.94
2023-05-18T11:34:59.943Z,21.00
2023-05-18T11:38:08.473Z,21.41
2023-05-18T11:41:29.167Z,21.57
2023-05-18T11:44:32.705Z,21.64
2023-05-18T11:47:36.610Z,21.61
2023-05-18T11:50:39.355Z,21.65
2023-05-18T11:53:42.275Z,22.28
2023-05-18T11:56:46.262Z,22.75
2023-05-18T11:59:51.115Z,22.53
2023-05-18T12:02:56.717Z,22.48
2023-05-18T12:06:01.463Z,22.66
2023-05-18T12:09:04.364Z,22.56
2023-05-18T12:12:10.938Z,23.68
2023-05-18T12:15:15.748Z,24.13
2023-05-18T12:18:20.028Z,24.49
2023-05-18T12:21:23.329Z,24.63
2023-05-18T12:24:25.708Z,24.09
2023-05-18T12:27:30.112Z,24.88
2023-05-18T12:30:36.297Z,25.23
2023-05-18T12:33:39.420Z,25.86
2023-05-18T12:36:43.653Z,26.33
2023-05-18T12:39:46.232Z,26.70
2023-05-18T12:42:54.478Z,27.30
2023-05-18T12:45:59.642Z,27.05
2023-05-18T12:49:05.005Z,26.84
2023-05-18T12:52:12.493Z,25.86
2023-05-18T12:55:21.534Z,26.70
2023-05-18T12:58:25.457Z,26.85
2023-05-18T13:01:28.200Z,26.93
2023-05-18T13:04:35.503Z,27.25
2023-05-18T13:07:40.083Z,27.36
2023-05-18T13:10:44.870Z,27.14
2023-05-18T13:14:10.786Z,27.23
2023-05-18T13:17:23.110Z,27.17
2023-05-18T13:20:35.744Z,28.44
2023-05-18T13:23:39.442Z,28.77
2023-05-18T13:26:42.370Z,27.17
2023-05-18T13:29:46.193Z,26.39
2023-05-18T13:32:48.897Z,26.23
2023-05-18T13:35:51.751Z,26.52
2023-05-18T13:38:54.493Z,27.44
2023-05-18T13:41:57.008Z,29.46
2023-05-18T13:45:01.023Z,36.10
2023-05-18T13:48:09.592Z,37.73
2023-05-18T13:51:13.221Z,31.71
2023-05-18T13:54:15.787Z,28.37
2023-05-18T13:57:18.325Z,28.52
2023-05-18T14:00:22.689Z,28.81
2023-05-18T14:03:25.745Z,32.16
2023-05-18T14:06:28.798Z,39.04
2023-05-18T14:09:32.914Z,37.33
2023-05-18T14:12:36.151Z,38.78
2023-05-18T14:15:40.155Z,37.98
2023-05-18T14:18:42.925Z,34.78
2023-05-18T14:21:45.835Z,34.82
2023-05-18T14:24:48.628Z,36.01
2023-05-18T14:27:51.449Z,40.12
2023-05-18T14:30:55.478Z,41.10
2023-05-18T14:33:58.362Z,36.02
2023-05-18T14:37:03.838Z,33.01
2023-05-18T14:40:08.325Z,35.81
2023-05-18T14:43:11.056Z,39.79
2023-05-18T14:46:15.241Z,32.90
2023-05-18T14:49:17.871Z,35.96
2023-05-18T14:52:20.590Z,41.47
2023-05-18T14:55:23.099Z,43.57
2023-05-18T14:58:26.107Z,44.99
2023-05-18T15:01:30.165Z,42.23
2023-05-18T15:04:33.252Z,36.68
2023-05-18T15:07:35.969Z,31.54
2023-05-18T15:10:38.687Z,28.13
2023-05-18T15:13:42.441Z,26.13
2023-05-18T15:16:46.779Z,24.86
2023-05-18T15:19:49.719Z,24.40
2023-05-18T15:22:52.314Z,23.89
2023-05-18T15:25:55.145Z,24.00
2023-05-18T15:28:57.800Z,24.00
2023-05-18T15:32:01.823Z,23.74
2023-05-18T15:35:05.202Z,23.83
2023-05-18T15:38:07.879Z,23.74
2023-05-18T15:41:10.732Z,23.53
2023-05-18T15:44:13.305Z,23.23
2023-05-18T15:47:17.305Z,22.60
2023-05-18T15:50:19.893Z,22.27
2023-05-18T15:53:22.463Z,22.20
2023-05-18T15:56:25.162Z,22.20
2023-05-18T15:59:28.301Z,22.00
2023-05-18T16:02:32.212Z,21.51
2023-05-18T16:05:35.223Z,21.44
2023-05-18T16:08:37.846Z,21.31
2023-05-18T16:11:40.401Z,21.13
2023-05-18T16:14:42.930Z,20.98
2023-05-18T16:17:47.106Z,21.12
2023-05-18T16:20:49.750Z,20.94
2023-05-18T16:23:52.558Z,20.82
2023-05-18T16:26:55.408Z,20.56
2023-05-18T16:29:58.378Z,20.50
2023-05-18T16:33:02.476Z,20.42
2023-05-18T16:36:06.225Z,20.47
2023-05-18T16:39:08.905Z,20.57
2023-05-18T16:42:12.395Z,20.59
2023-05-18T16:45:15.272Z,20.52
2023-05-18T16:48:19.334Z,20.47
2023-05-18T16:51:21.934Z,20.50
2023-05-18T16:54:25.093Z,20.51
2023-05-18T16:57:27.822Z,20.46
2023-05-18T17:00:31.127Z,20.42
2023-05-18T17:03:35.718Z,20.39
2023-05-18T17:06:38.914Z,20.55
2023-05-18T17:09:42.365Z,20.67
2023-05-18T17:12:45.005Z,20.79
2023-05-18T17:15:47.720Z,20.87
2023-05-18T17:18:53.388Z,20.83
2023-05-18T17:21:56.413Z,20.76
2023-05-18T17:24:59.368Z,20.57
2023-05-18T17:28:02.036Z,20.30
2023-05-18T17:31:07.498Z,20.06
2023-05-18T17:34:11.880Z,19.93
2023-05-18T17:37:14.514Z,19.78
2023-05-18T17:40:17.146Z,19.71
2023-05-18T17:43:19.919Z,19.72
2023-05-18T17:46:22.519Z,19.74
2023-05-18T17:49:27.223Z,19.67
2023-05-18T17:52:29.858Z,19.62
2023-05-18T17:55:32.751Z,19.56
2023-05-18T17:58:38.822Z,19.39
2023-05-18T18:01:41.804Z,19.23
2023-05-18T18:04:45.755Z,19.19
2023-05-18T18:07:48.533Z,19.11
2023-05-18T18:10:51.390Z,19.09
2023-05-18T18:13:54.701Z,19.03
2023-05-18T18:16:58.433Z,18.97
2023-05-18T18:20:04.142Z,18.86
2023-05-18T18:23:07.391Z,18.76
2023-05-18T18:26:10.047Z,18.66
2023-05-18T18:29:12.643Z,18.58
2023-05-18T18:32:15.200Z,18.52
2023-05-18T18:35:19.452Z,18.43
2023-05-18T18:38:22.440Z,18.30
2023-05-18T18:41:25.895Z,18.15
2023-05-18T18:44:28.731Z,18.05
2023-05-18T18:47:31.445Z,18.00
2023-05-18T18:50:35.470Z,17.90
2023-05-18T18:53:38.043Z,17.85
2023-05-18T18:56:40.766Z,17.79
2023-05-18T18:59:43.410Z,17.69
2023-05-18T19:02:46.012Z,17.67
2023-05-18T19:05:50.362Z,17.66
2023-05-18T19:08:53.364Z,17.63
2023-05-18T19:11:55.965Z,17.62
2023-05-18T19:14:58.493Z,17.65
2023-05-18T19:18:01.196Z,17.63
2023-05-18T19:21:05.593Z,17.57
2023-05-18T19:24:08.802Z,17.56
2023-05-18T19:27:11.376Z,17.55
2023-05-18T19:30:16.497Z,17.51
2023-05-18T19:33:19.092Z,17.43
2023-05-18T19:36:22.951Z,17.35
2023-05-18T19:39:25.558Z,17.19
2023-05-18T19:42:28.302Z,17.03
2023-05-18T19:45:31.158Z,16.85
2023-05-18T19:48:34.104Z,16.68
2023-05-18T19:51:38.768Z,16.50
2023-05-18T19:54:41.453Z,16.31
2023-05-18T19:57:44.022Z,16.09
2023-05-18T20:00:46.816Z,15.88
2023-05-18T20:03:49.783Z,15.69
2023-05-18T20:06:53.979Z,15.45
2023-05-18T20:09:56.500Z,15.25
2023-05-18T20:12:59.059Z,15.12
2023-05-18T20:16:03.466Z,15.01
2023-05-18T20:19:06.606Z,14.87
2023-05-18T20:22:10.978Z,14.70
2023-05-18T20:25:13.630Z,14.58
2023-05-18T20:28:16.304Z,14.46
2023-05-18T20:31:18.897Z,14.37
2023-05-18T20:34:21.482Z,14.28
2023-05-18T20:37:26.182Z,14.21
2023-05-18T20:40:30.783Z,14.19
2023-05-18T20:43:33.712Z,14.28
2023-05-18T20:46:37.665Z,14.32
2023-05-18T20:49:41.255Z,14.40
2023-05-18T20:52:46.141Z,14.44
2023-05-18T20:55:49.809Z,14.52
2023-05-18T20:58:52.395Z,14.62
2023-05-18T21:01:56.383Z,14.69
2023-05-18T21:04:59.118Z,14.72
2023-05-18T21:08:03.459Z,14.79
2023-05-18T21:11:06.022Z,14.86
2023-05-18T21:14:08.789Z,14.89
2023-05-18T21:17:11.407Z,14.92
2023-05-18T21:20:14.026Z,14.93
2023-05-18T21:23:18.058Z,14.97
2023-05-18T21:26:20.630Z,15.01
2023-05-18T21:29:23.214Z,15.05
2023-05-18T21:32:25.852Z,15.08
2023-05-18T21:35:28.594Z,15.11
2023-05-18T21:38:32.819Z,15.10
2023-05-18T21:41:39.078Z,15.08
2023-05-18T21:44:41.642Z,15.08
2023-05-18T21:47:44.336Z,15.07
2023-05-18T21:50:47.146Z,15.09
2023-05-18T21:53:51.702Z,15.10
2023-05-18T21:56:54.322Z,15.09
2023-05-18T21:59:56.844Z,15.08
2023-05-18T22:02:59.628Z,15.12
2023-05-18T22:06:02.181Z,15.15
2023-05-18T22:09:06.835Z,15.26
2023-05-18T22:12:09.686Z,15.29
2023-05-18T22:15:12.765Z,15.26
2023-05-18T22:18:17.381Z,15.24
2023-05-18T22:21:20.149Z,15.21
2023-05-18T22:24:24.118Z,15.22
2023-05-18T22:27:26.789Z,15.18
2023-05-18T22:30:29.565Z,15.20
2023-05-18T22:33:32.326Z,15.17
2023-05-18T22:36:35.150Z,15.13
2023-05-18T22:39:39.009Z,15.19
2023-05-18T22:42:41.927Z,15.18
2023-05-18T22:45:44.479Z,15.11
2023-05-18T22:48:48.054Z,15.09
2023-05-18T22:51:52.520Z,15.07
2023-05-18T22:54:56.582Z,15.08
2023-05-18T22:57:59.433Z,15.11
2023-05-18T23:01:02.058Z,15.09
2023-05-18T23:04:04.601Z,15.07
2023-05-18T23:07:07.325Z,15.03
2023-05-18T23:10:12.775Z,15.00
2023-05-18T23:13:16.953Z,14.93
2023-05-18T23:16:20.535Z,14.85
2023-05-18T23:19:23.835Z,14.80
2023-05-18T23:22:26.691Z,14.82
2023-05-18T23:25:30.693Z,14.82
2023-05-18T23:28:33.263Z,14.75
2023-05-18T23:31:35.948Z,14.64
2023-05-18T23:34:39.082Z,14.56
2023-05-18T23:37:42.943Z,14.45
2023-05-18T23:40:48.221Z,14.37
2023-05-18T23:43:53.008Z,14.33
2023-05-18T23:46:56.426Z,14.19
2023-05-18T23:49:59.617Z,14.03
2023-05-18T23:53:04.432Z,13.85
2023-05-18T23:56:09.173Z,13.74
2023-05-18T23:59:12.791Z,13.73
